LGZALGKF

Guest
Details From LGZA - Zakinthos Dionysios Solomos
To LGKF - Kefallinia
Flight Number -
Tags Routegen Generated
Created
Modified
Stats Distance 28 nm / 52 km
Max Altitude 100 ft / 30 m
Waypoints 5
Social Downloads 4
Likes 0
Share VATSIM

Download

Looking for another format? Having issues loading an existing format? Contact us
Advertisement - Login to hide

Notes

Departing runway 34 LGZA. Arriving runway 14 LGKF.

Route

LGZA +37.83_+020.85 +37.94_+020.71 +38.05_+020.56 LGKF

ID Type Via Altitude Latitude Longitude Leg Dist Tot Dist Heading (true) Name
O LGZA APT - 0 ft / 0 m 37.76048˚ 20.88054˚ - 0 nm - -
+37.83_+020.85 LATLON - 100 ft / 30 m 37.82988˚ 20.85460˚ 4 nm 4 nm 344° / 344° -
+37.94_+020.71 LATLON - 100 ft / 30 m 37.94028˚ 20.70682˚ 9 nm 13 nm 313° / 313° -
+38.05_+020.56 LATLON - 100 ft / 30 m 38.05068˚ 20.55903˚ 9 nm 23 nm 314° / 313° -
O LGKF APT - 0 ft / 0 m 38.11096˚ 20.50817˚ 4 nm 27 nm 326° / 326° -

Altitude Profile

Advertisement - Login to hide

LGZA

Details ICAO LGZA (ZTH)
Name Dionysios Solomos
Region Greece
Timezone Europe/Athens (UTC+2.0)
Stats Elevation 14 ft / 4 m (AMSL)
Location 37.751230° 20.884106°
Runways 1
Magnetic Variation 4.072° E

METAR

LGZA 141650Z 00000KT 9999 FEW025 12/09 Q1018

Decode

TAF

Not found

Departure Runways

ID Width Length Bearing (true) Bearing (mag) Surface Threshold Offset Overrun Length
16 148 ft / 45 m 7,315 ft / 2,230 m 163.49° 159.42° Asphalt 715 ft / 218 m 112 ft / 34 m
34 148 ft / 45 m 7,315 ft / 2,230 m 343.49° 339.42° Asphalt 728 ft / 222 m 135 ft / 41 m

LGKF

Details ICAO LGKF (EFL)
Name Kefallinia
Region Greece
Timezone Europe/Athens (UTC+2.0)
Stats Elevation 59 ft / 18 m (AMSL)
Location 38.120069° 20.500480°
Runways 1
Magnetic Variation 4.052° E

METAR

LGKF 141650Z 00000KT 9999 FEW016 12/11 Q1018

Decode

TAF

Not found

Destination Runways

ID Width Length Bearing (true) Bearing (mag) Surface Threshold Offset Overrun Length
14 148 ft / 45 m 7,979 ft / 2,432 m 146.39° 142.34° Asphalt 0 ft / 0 m 180 ft / 55 m
32 148 ft / 45 m 7,979 ft / 2,432 m 326.40° 322.35° Asphalt 912 ft / 278 m 100 ft / 30 m

Popular Alternatives